Time;durP1;ratioP1;P1;durP2;ratioP2;P2;SDS_P1;SDS_P2;PMS_P1;PMS_P2;Temp;Humidity;BMP_temperature;BMP_pressure;BME280_temperature;BME280_humidity;BME280_pressure;Samples;Min_cycle;Max_cycle;Signal;HPM_P1;HPM_P2
2022/08/23 00:01:50;;;;;;;6.20;5.80;;;;;;;18.99;80.43;101025.69;6126233;23;20044;-87
2022/08/23 00:04:25;;;;;;;6.65;6.35;;;;;;;18.42;81.12;100955.00;6024175;23;20077;-88
2022/08/23 00:07:01;;;;;;;8.57;6.93;;;;;;;18.49;81.77;100980.97;6113122;23;20229;-88
2022/08/23 00:09:28;;;;;;;6.40;6.00;;;;;;;17.78;81.69;100865.38;6040413;23;20472;-88
2022/08/23 00:11:54;;;;;;;7.15;6.40;;;;;;;18.72;82.38;101020.78;6103001;23;20115;-87
2022/08/23 00:14:29;;;;;;;6.63;6.13;;;;;;;15.69;82.46;100596.16;6072908;23;20014;-89
2022/08/23 00:16:58;;;;;;;6.55;6.03;;;;;;;18.57;82.94;101022.88;6111913;23;20021;-87
2022/08/23 00:19:26;;;;;;;5.70;5.40;;;;;;;18.18;83.10;100971.13;6075533;23;20353;-88
2022/08/23 00:21:54;;;;;;;6.10;5.80;;;;;;;18.21;83.44;100971.72;6129919;23;20320;-87
2022/08/23 00:24:23;;;;;;;6.05;5.65;;;;;;;16.45;84.58;100711.28;6104363;23;20034;-88
2022/08/23 00:27:11;;;;;;;5.97;5.63;;;;;;;18.40;84.74;101004.78;6120028;23;20150;-88
2022/08/23 00:29:43;;;;;;;6.78;6.35;;;;;;;18.32;85.24;101008.91;6074378;23;20042;-88
2022/08/23 00:32:13;;;;;;;7.30;6.60;;;;;;;18.26;85.76;100997.91;6096215;23;20010;-86
2022/08/23 00:34:40;;;;;;;6.53;6.05;;;;;;;16.76;86.17;100759.28;6099875;23;20014;-88
2022/08/23 00:37:07;;;;;;;7.68;7.07;;;;;;;18.20;87.00;100998.41;6096941;23;20104;-87
2022/08/23 00:39:34;;;;;;;6.20;5.85;;;;;;;17.02;86.76;100815.59;6075177;23;20026;-87
2022/08/23 00:47:38;;;;;;;6.35;5.95;;;;;;;18.13;87.17;100998.06;6100267;23;20152;-85
2022/08/23 00:47:45;;;;;;;6.18;5.82;;;;;;;17.67;87.80;100949.38;6120171;23;20014;-87
2022/08/23 00:50:38;;;;;;;6.80;6.40;;;;;;;17.97;87.82;101000.22;6095436;23;20052;-88
2022/08/23 00:53:15;;;;;;;7.55;7.03;;;;;;;17.39;88.62;100916.19;6054669;23;20051;-88
2022/08/23 00:55:45;;;;;;;6.40;6.00;;;;;;;16.69;89.20;100848.16;6102801;23;20072;-88
2022/08/23 00:58:17;;;;;;;7.18;6.68;;;;;;;17.81;89.22;100989.94;6064270;23;20244;-87
2022/08/23 01:00:44;;;;;;;6.22;5.93;;;;;;;14.98;89.58;100545.03;6084663;23;20215;-89
2022/08/23 01:03:12;;;;;;;7.18;6.30;;;;;;;17.35;90.92;100944.75;6087023;23;20022;-88
2022/08/23 01:05:48;;;;;;;6.28;5.90;;;;;;;16.85;90.45;100879.66;6066803;23;20033;-87
2022/08/23 01:08:15;;;;;;;7.20;6.50;;;;;;;14.90;90.55;100591.34;6067759;23;20339;-88
2022/08/23 01:10:48;;;;;;;7.00;6.30;;;;;;;17.60;91.06;101005.69;6069684;23;20050;-88
2022/08/23 01:13:24;;;;;;;7.07;6.65;;;;;;;15.42;91.19;100705.69;6084905;23;20186;-88
2022/08/23 01:15:59;;;;;;;6.47;6.00;;;;;;;17.26;91.20;100985.25;6098517;23;20105;-87
2022/08/23 01:18:29;;;;;;;6.20;5.82;;;;;;;16.46;91.16;100898.41;6141430;23;20486;-87
2022/08/23 01:21:20;;;;;;;6.45;6.05;;;;;;;15.22;91.14;100701.00;6068157;23;20492;-88
2022/08/23 01:23:52;;;;;;;6.63;6.13;;;;;;;17.21;92.99;101019.22;6120787;23;20026;-87
2022/08/23 01:26:21;;;;;;;6.20;5.82;;;;;;;16.66;94.31;100957.03;6101220;23;20460;-88
2022/08/23 01:28:48;;;;;;;6.45;6.05;;;;;;;15.55;94.71;100809.66;6035496;23;20208;-87
2022/08/23 01:31:17;;;;;;;7.15;6.65;;;;;;;16.93;95.14;101000.06;6073201;23;20054;-87
2022/08/23 01:33:47;;;;;;;5.80;5.50;;;;;;;16.74;94.43;100966.09;6089390;23;20014;-88
2022/08/23 01:36:15;;;;;;;6.75;6.35;;;;;;;16.12;95.06;100873.56;6099605;23;20103;-87
2022/08/23 01:38:42;;;;;;;6.55;6.05;;;;;;;16.54;95.18;100943.72;6064879;23;20014;-88
2022/08/23 01:41:08;;;;;;;6.80;6.40;;;;;;;15.64;95.25;100792.25;6124335;23;20012;-88
2022/08/23 01:43:35;;;;;;;6.40;6.00;;;;;;;16.52;96.25;100958.91;6094636;23;20439;-87
2022/08/23 01:46:14;;;;;;;6.78;6.38;;;;;;;14.75;95.99;100661.09;6055133;23;20030;-88
2022/08/23 01:48:41;;;;;;;6.55;6.05;;;;;;;16.23;98.23;100918.63;6085510;23;20579;-86
2022/08/23 01:51:08;;;;;;;7.75;6.55;;;;;;;15.74;97.64;100835.66;6063703;23;20025;-87
2022/08/23 01:53:34;;;;;;;6.30;5.90;;;;;;;16.41;98.25;100955.31;6119056;23;20046;-86
2022/08/23 01:56:04;;;;;;;6.57;6.03;;;;;;;16.85;98.96;101034.25;6053674;23;20006;-87
2022/08/23 01:58:31;;;;;;;7.32;6.20;;;;;;;16.82;99.34;101031.84;6075909;23;20034;-86
2022/08/23 02:00:59;;;;;;;6.55;6.03;;;;;;;15.92;98.14;100883.78;6074387;23;20030;-86
2022/08/23 02:03:27;;;;;;;6.15;5.70;;;;;;;13.97;98.54;100588.13;6106120;23;20040;-88
2022/08/23 02:05:54;;;;;;;6.25;5.85;;;;;;;16.18;98.97;100947.25;6059949;23;20085;-87
2022/08/23 02:11:09;;;;;;;7.63;7.05;;;;;;;16.66;99.53;101044.50;6061741;23;20054;-87
2022/08/23 02:13:38;;;;;;;6.65;6.25;;;;;;;15.18;99.21;100837.00;6118899;23;20019;-86
2022/08/23 02:16:04;;;;;;;6.80;6.40;;;;;;;14.56;98.83;100714.38;6069716;23;20134;-87
2022/08/23 02:18:31;;;;;;;6.35;5.95;;;;;;;16.47;99.18;101034.34;6112812;23;20077;-87
2022/08/23 02:20:58;;;;;;;6.60;6.10;;;;;;;16.43;99.70;101040.84;6094294;23;20457;-86
2022/08/23 02:23:25;;;;;;;6.30;5.90;;;;;;;16.38;99.37;101042.94;6127484;23;20412;-89
2022/08/23 02:25:52;;;;;;;6.80;6.20;;;;;;;14.42;100.00;100764.63;6055114;23;20026;-88
2022/08/23 02:28:20;;;;;;;7.00;6.50;;;;;;;16.31;100.00;101032.78;6104617;23;20029;-87
2022/08/23 02:30:47;;;;;;;6.10;5.70;;;;;;;16.31;100.00;101031.94;6099506;23;20076;-88
2022/08/23 02:33:15;;;;;;;7.68;7.00;;;;;;;15.60;100.00;100928.38;6060004;23;20534;-86
2022/08/23 02:35:43;;;;;;;5.88;5.45;;;;;;;15.36;100.00;100894.72;6093158;23;20006;-87
2022/08/23 02:38:11;;;;;;;7.15;6.63;;;;;;;15.04;100.00;100872.31;6070475;23;20118;-86
2022/08/23 02:40:39;;;;;;;6.65;6.07;;;;;;;13.03;100.00;100511.78;6056738;23;20166;-88
2022/08/23 02:43:06;;;;;;;7.18;6.57;;;;;;;16.20;100.00;101043.31;6114781;23;20049;-87
2022/08/23 02:45:33;;;;;;;6.30;5.90;;;;;;;14.28;100.00;100721.50;6042005;23;20053;-86
2022/08/23 02:48:00;;;;;;;6.20;5.80;;;;;;;14.40;100.00;100771.81;6094477;23;20014;-85
2022/08/23 02:50:27;;;;;;;7.75;5.72;;;;;;;15.38;100.00;100938.75;6067337;23;20027;-87
2022/08/23 02:52:53;;;;;;;5.93;5.63;;;;;;;15.64;100.00;100987.22;6068015;23;20017;-87
2022/08/23 02:55:22;;;;;;;12.18;5.50;;;;;;;14.92;100.00;100850.19;6067773;23;20061;-87
2022/08/23 02:57:49;;;;;;;7.18;5.80;;;;;;;16.07;100.00;101051.25;6067568;23;20090;-86
2022/08/23 03:00:17;;;;;;;6.45;6.05;;;;;;;16.03;100.00;101044.47;6101213;23;20103;-87
2022/08/23 03:02:45;;;;;;;6.10;5.70;;;;;;;16.00;100.00;101042.06;6053157;23;20025;-86
2022/08/23 03:05:13;;;;;;;6.55;6.15;;;;;;;15.63;100.00;100990.78;6139992;23;20017;-87
2022/08/23 03:07:40;;;;;;;8.57;5.60;;;;;;;15.93;100.00;101040.78;6092618;23;20394;-87
2022/08/23 03:10:08;;;;;;;7.28;6.25;;;;;;;14.84;100.00;100892.16;6061627;23;20077;-89
2022/08/23 03:12:35;;;;;;;6.13;5.72;;;;;;;15.91;100.00;101045.34;6062419;23;20006;-88
2022/08/23 03:15:03;;;;;;;6.22;5.82;;;;;;;15.45;100.00;100969.09;6045220;23;20018;-86
2022/08/23 03:17:31;;;;;;;6.40;6.00;;;;;;;14.84;100.00;100881.59;6138076;23;20021;-88
2022/08/23 03:19:58;;;;;;;6.63;5.93;;;;;;;15.28;100.00;100944.66;6057644;23;20057;-87
2022/08/23 03:22:25;;;;;;;6.10;5.70;;;;;;;15.02;100.00;100927.91;6107776;23;20078;-87
2022/08/23 03:24:51;;;;;;;6.20;5.80;;;;;;;13.65;100.00;100682.59;6067803;23;20054;-87
2022/08/23 03:27:18;;;;;;;6.30;5.90;;;;;;;14.96;100.00;100936.25;6124216;23;20052;-86
2022/08/23 03:29:44;;;;;;;5.93;5.53;;;;;;;14.78;100.00;100879.34;6061399;23;20052;-87
2022/08/23 03:32:12;;;;;;;6.72;6.30;;;;;;;15.09;100.00;100937.09;6070090;23;20562;-87
2022/08/23 03:34:40;;;;;;;9.23;6.03;;;;;;;15.81;100.00;101057.50;6092820;23;20272;-88
2022/08/23 03:37:07;;;;;;;8.60;7.35;;;;;;;15.24;100.00;100979.34;6019086;23;20031;-89
2022/08/23 03:39:33;;;;;;;6.35;5.85;;;;;;;15.35;100.00;101000.59;6074830;23;20243;-88
2022/08/23 03:42:00;;;;;;;6.18;5.78;;;;;;;14.29;100.00;100835.84;6065327;23;20495;-87
2022/08/23 03:44:27;;;;;;;5.72;5.43;;;;;;;14.75;100.00;100917.38;6071482;23;20097;-89
2022/08/23 03:46:54;;;;;;;5.70;5.35;;;;;;;14.62;100.00;100904.13;6041108;23;20034;-86
2022/08/23 03:49:20;;;;;;;6.07;5.30;;;;;;;14.78;100.00;100937.47;6105008;23;20211;-86
2022/08/23 03:51:47;;;;;;;5.95;5.53;;;;;;;15.41;100.00;101033.72;6045022;23;20030;-87
2022/08/23 03:54:14;;;;;;;7.78;7.28;;;;;;;14.33;100.00;100871.66;6084717;23;20070;-87
2022/08/23 03:57:02;;;;;;;6.85;6.28;;;;;;;15.47;100.00;101076.47;6043613;23;20007;-86
2022/08/23 03:59:32;;;;;;;7.00;6.32;;;;;;;13.74;100.00;100791.00;6067564;23;20053;-87
2022/08/23 04:01:59;;;;;;;7.32;6.63;;;;;;;14.52;100.00;100935.53;6072587;23;20073;-88
2022/08/23 04:04:26;;;;;;;6.28;5.88;;;;;;;15.23;100.00;101046.38;6064548;23;20031;-87
2022/08/23 04:06:53;;;;;;;6.13;5.72;;;;;;;12.16;100.00;100553.22;6031838;23;20039;-87
2022/08/23 04:09:21;;;;;;;6.38;5.88;;;;;;;12.21;100.00;100550.31;6123637;23;20170;-89
2022/08/23 04:11:49;;;;;;;6.20;5.70;;;;;;;14.75;100.00;100986.94;6073084;23;20015;-88
2022/08/23 04:14:15;;;;;;;7.10;6.70;;;;;;;14.99;100.00;101011.84;6090971;23;20013;-88
2022/08/23 04:16:43;;;;;;;6.35;5.78;;;;;;;12.52;100.00;100654.56;6041549;23;20011;-89
2022/08/23 04:19:12;;;;;;;6.55;6.15;;;;;;;15.45;100.00;101088.94;6102634;23;20554;-86
2022/08/23 04:21:43;;;;;;;5.60;5.30;;;;;;;14.95;100.00;101011.19;6043045;23;20007;-86
2022/08/23 04:24:10;;;;;;;8.38;7.72;;;;;;;15.32;100.00;101080.16;6094489;23;20072;-89
2022/08/23 04:26:37;;;;;;;6.50;6.00;;;;;;;14.58;100.00;100979.25;6035389;23;20034;-86
2022/08/23 04:29:04;;;;;;;6.47;6.07;;;;;;;14.54;100.00;100954.78;6077288;23;20076;-88
2022/08/23 04:31:32;;;;;;;6.45;5.95;;;;;;;15.15;100.00;101044.22;6035927;23;20103;-87
2022/08/23 04:34:01;;;;;;;6.40;6.00;;;;;;;12.56;100.00;100670.06;6066267;23;20034;-88
2022/08/23 04:36:34;;;;;;;6.43;6.03;;;;;;;15.15;100.00;101047.75;6036244;23;20065;-86
2022/08/23 04:39:02;;;;;;;6.68;6.22;;;;;;;14.82;100.00;101013.78;6059062;23;20435;-85
2022/08/23 04:44:14;;;;;;;7.10;6.47;;;;;;;15.11;100.00;101083.25;6040541;23;20038;-86
2022/08/23 04:46:42;;;;;;;6.43;5.93;;;;;;;14.86;100.00;101043.50;6036215;23;20014;-86
2022/08/23 04:49:10;;;;;;;7.45;6.88;;;;;;;15.38;100.00;101140.56;6030280;23;20034;-86
2022/08/23 04:51:37;;;;;;;6.55;6.05;;;;;;;15.30;100.00;101119.06;6090325;23;20092;-86
2022/08/23 04:54:04;;;;;;;8.02;6.35;;;;;;;15.49;100.00;101130.13;6059188;23;20109;-87
2022/08/23 04:56:30;;;;;;;6.55;5.95;;;;;;;15.49;100.00;101130.13;6036312;23;20018;-87
2022/08/23 04:59:00;;;;;;;6.55;6.05;;;;;;;14.76;100.00;101011.53;6007475;23;20027;-85
2022/08/23 05:01:27;;;;;;;6.47;5.90;;;;;;;14.22;100.00;100911.97;6059749;23;20014;-86
2022/08/23 05:03:54;;;;;;;6.05;5.65;;;;;;;15.55;100.00;101116.50;6062867;23;20456;-87
2022/08/23 05:06:21;;;;;;;6.30;5.85;;;;;;;15.58;100.00;101110.16;6027132;23;20048;-87
2022/08/23 05:08:48;;;;;;;7.13;6.32;;;;;;;14.15;100.00;100864.03;6001262;23;20015;-86
2022/08/23 05:11:17;;;;;;;6.70;6.20;;;;;;;15.45;100.00;101078.38;6089842;23;20041;-84
2022/08/23 05:13:44;;;;;;;6.15;5.75;;;;;;;13.87;100.00;100817.44;6024106;23;20091;-86
2022/08/23 05:16:11;;;;;;;7.35;6.85;;;;;;;13.99;100.00;100797.31;6054413;23;20102;-85
2022/08/23 05:18:37;;;;;;;6.22;5.82;;;;;;;15.99;100.00;101092.47;6031279;23;20075;-87
2022/08/23 05:21:04;;;;;;;11.05;6.55;;;;;;;13.74;99.90;100684.66;6009942;23;20054;-86
2022/08/23 05:23:31;;;;;;;7.55;6.65;;;;;;;15.87;100.00;101006.81;6036325;23;20081;-85
2022/08/23 05:25:58;;;;;;;7.85;7.15;;;;;;;15.90;100.00;100991.56;6035268;23;20504;-87
2022/08/23 05:28:30;;;;;;;6.38;5.97;;;;;;;15.01;100.00;100872.50;6060473;23;20026;-86
2022/08/23 05:31:03;;;;;;;6.70;6.20;;;;;;;16.78;98.39;101055.97;6027759;23;20096;-86
2022/08/23 05:33:32;;;;;;;7.43;6.50;;;;;;;16.73;97.00;101019.22;6104478;23;20028;-86
2022/08/23 05:36:00;;;;;;;7.53;6.93;;;;;;;17.86;95.25;101110.78;6038877;23;20022;-86
2022/08/23 05:38:30;;;;;;;7.32;6.72;;;;;;;18.59;92.19;101105.16;6089121;23;20083;-84
2022/08/23 05:40:57;;;;;;;6.07;5.72;;;;;;;18.92;87.58;101129.09;6089706;23;20049;-86
2022/08/23 05:43:25;;;;;;;7.00;6.03;;;;;;;17.79;85.02;100832.59;6097334;23;20027;-86
2022/08/23 05:46:09;;;;;;;6.80;6.32;;;;;;;20.00;83.01;101106.03;6089405;23;20349;-87
2022/08/23 05:48:40;;;;;;;6.93;6.43;;;;;;;20.23;79.68;101067.59;6101026;23;20013;-86
2022/08/23 05:51:12;;;;;;;7.35;6.90;;;;;;;20.58;77.25;101063.63;6065381;23;20015;-86
2022/08/23 05:53:40;;;;;;;6.88;6.18;;;;;;;18.54;75.79;100730.75;6086650;23;20010;-86
2022/08/23 05:56:27;;;;;;;8.00;7.30;;;;;;;20.44;75.49;101038.19;6069677;23;20092;-87
2022/08/23 05:59:00;;;;;;;6.47;5.97;;;;;;;20.55;74.60;101076.38;6123587;23;20053;-87
2022/08/23 06:01:28;;;;;;;6.60;6.20;;;;;;;20.37;72.88;101078.88;6073071;23;20427;-87
2022/08/23 06:03:58;;;;;;;6.38;5.90;;;;;;;19.52;73.91;100937.84;6076081;23;20071;-86
2022/08/23 06:06:26;;;;;;;6.45;6.00;;;;;;;20.10;73.45;100995.00;6083268;23;20181;-86
2022/08/23 06:09:05;;;;;;;7.47;6.97;;;;;;;21.25;72.05;101120.81;6055230;23;20017;-86
2022/08/23 06:11:31;;;;;;;6.10;5.80;;;;;;;19.70;71.37;100854.66;6112993;23;20025;-86
2022/08/23 06:14:01;;;;;;;6.70;6.28;;;;;;;20.88;70.72;101096.59;6079874;23;20024;-85
2022/08/23 06:16:34;;;;;;;8.68;6.47;;;;;;;20.87;70.27;101105.59;6090158;23;20088;-85
2022/08/23 06:19:01;;;;;;;6.97;6.57;;;;;;;20.63;69.53;101076.59;6076312;23;20029;-86
2022/08/23 06:21:28;;;;;;;6.63;6.18;;;;;;;20.55;70.81;101087.03;6057757;23;20015;-87
2022/08/23 06:23:58;;;;;;;8.80;6.75;;;;;;;20.75;71.50;101136.00;6092718;23;20184;-85
2022/08/23 06:26:30;;;;;;;6.43;6.03;;;;;;;20.35;74.71;101131.44;6038564;23;20038;-86
2022/08/23 06:29:02;;;;;;;7.15;6.55;;;;;;;20.24;74.73;101138.56;6107455;23;20073;-86
2022/08/23 06:31:45;;;;;;;6.35;5.95;;;;;;;19.96;75.04;101125.91;6021254;23;20547;-85
2022/08/23 06:34:21;;;;;;;7.82;7.32;;;;;;;20.16;75.97;101137.53;6068971;23;20046;-88
2022/08/23 06:36:51;;;;;;;6.50;6.10;;;;;;;20.31;75.05;101152.22;6020038;23;20082;-86
2022/08/23 06:39:19;;;;;;;6.93;6.43;;;;;;;20.19;74.32;101121.28;6066153;23;20033;-87
2022/08/23 06:41:49;;;;;;;9.65;6.93;;;;;;;20.33;73.74;101103.13;6038700;23;20015;-86
2022/08/23 06:44:17;;;;;;;7.28;6.78;;;;;;;20.78;72.81;101135.72;6091915;23;20034;-86
2022/08/23 06:46:46;;;;;;;7.00;6.40;;;;;;;20.99;72.09;101141.84;6062787;23;20018;-86
2022/08/23 06:49:13;;;;;;;7.55;6.95;;;;;;;20.81;71.95;101088.28;6069652;23;20206;-86
2022/08/23 06:51:47;;;;;;;6.72;6.22;;;;;;;21.38;71.49;101149.88;6057734;23;20353;-86
2022/08/23 06:54:15;;;;;;;7.40;6.88;;;;;;;20.98;71.14;101073.44;6094364;23;20740;-85
2022/08/23 06:56:43;;;;;;;6.68;6.28;;;;;;;19.87;70.36;100891.31;6069206;23;20378;-86
2022/08/23 06:59:10;;;;;;;6.80;6.40;;;;;;;19.85;70.06;100879.97;6088622;23;20021;-86
2022/08/23 07:02:00;;;;;;;8.73;8.23;;;;;;;21.77;69.47;101146.41;6046288;23;20081;-86
2022/08/23 07:04:31;;;;;;;7.35;6.72;;;;;;;20.55;69.22;100977.72;6069189;23;20416;-87
2022/08/23 07:07:00;;;;;;;6.70;6.28;;;;;;;21.99;68.32;101146.09;6030509;23;20014;-86
2022/08/23 07:09:28;;;;;;;7.20;6.18;;;;;;;18.49;68.00;100571.69;6074136;23;20024;-85
2022/08/23 07:11:58;;;;;;;7.32;6.72;;;;;;;19.56;67.86;100765.34;6013798;23;20042;-85
2022/08/23 07:14:25;;;;;;;6.93;6.35;;;;;;;20.50;67.28;100891.00;6083405;23;20178;-86
2022/08/23 07:16:58;;;;;;;6.78;6.32;;;;;;;21.76;67.45;101089.47;6026986;23;20476;-86
2022/08/23 07:19:27;;;;;;;6.68;6.25;;;;;;;22.33;66.93;101142.09;6054601;23;20029;-86
2022/08/23 07:21:56;;;;;;;7.18;6.63;;;;;;;22.05;66.05;101069.81;6071961;23;20022;-84
2022/08/23 07:24:22;;;;;;;8.00;6.38;;;;;;;22.44;65.37;101108.00;6074141;23;20032;-86
2022/08/23 07:26:50;;;;;;;7.40;6.80;;;;;;;22.63;66.32;101143.66;6030342;23;20170;-86
2022/08/23 07:29:19;;;;;;;7.00;6.50;;;;;;;22.17;66.36;101081.19;6097342;23;20183;-86
2022/08/23 07:31:49;;;;;;;7.15;6.40;;;;;;;22.01;65.83;101057.75;6037684;23;20025;-86
2022/08/23 07:34:17;;;;;;;6.97;6.57;;;;;;;22.17;66.37;101074.03;6118629;23;20021;-86
2022/08/23 07:36:45;;;;;;;7.10;6.50;;;;;;;20.87;64.65;100855.66;6072175;23;20029;-85
2022/08/23 07:39:13;;;;;;;7.30;6.80;;;;;;;20.88;63.63;100837.81;6053219;23;20026;-85
2022/08/23 07:41:40;;;;;;;7.15;6.57;;;;;;;19.79;63.97;100696.75;6104264;23;20021;-86
2022/08/23 07:44:08;;;;;;;8.27;7.55;;;;;;;21.89;64.03;100988.47;6063016;23;20387;-88
2022/08/23 07:46:39;;;;;;;6.80;6.32;;;;;;;22.82;62.49;101132.03;6108028;23;20025;-87
2022/08/23 07:49:07;;;;;;;6.78;6.38;;;;;;;22.80;62.81;101115.28;6067731;23;20151;-86
2022/08/23 07:51:36;;;;;;;7.03;6.32;;;;;;;20.91;61.44;100778.84;6099397;23;20017;-86
2022/08/23 07:54:07;;;;;;;6.90;6.30;;;;;;;21.85;60.13;100904.25;6072409;23;20072;-85
2022/08/23 07:56:34;;;;;;;6.68;6.20;;;;;;;23.28;60.71;101125.69;6111654;23;20021;-87
2022/08/23 07:59:01;;;;;;;7.20;6.70;;;;;;;23.00;60.95;101055.28;6061065;23;20067;-86
2022/08/23 08:01:28;;;;;;;6.68;6.28;;;;;;;23.15;60.27;101068.16;6092525;23;20033;-86
2022/08/23 08:03:58;;;;;;;6.32;5.93;;;;;;;23.52;59.05;101118.88;6074520;23;20154;-84
2022/08/23 08:06:39;;;;;;;6.40;6.00;;;;;;;23.84;59.38;101138.94;6087263;23;20107;-87
2022/08/23 08:09:07;;;;;;;9.73;6.57;;;;;;;24.01;59.02;101143.41;6060392;23;20022;-87
2022/08/23 08:11:34;;;;;;;6.82;6.22;;;;;;;23.48;59.28;101037.97;6099339;23;20368;-86
2022/08/23 08:14:07;;;;;;;6.65;6.10;;;;;;;24.19;57.58;101145.19;6051491;23;20106;-86
2022/08/23 08:16:39;;;;;;;7.25;6.68;;;;;;;22.52;58.43;100845.13;6123275;23;20389;-86
2022/08/23 08:19:10;;;;;;;7.90;7.40;;;;;;;24.45;57.92;101142.50;6075652;23;20025;-85
2022/08/23 08:21:38;;;;;;;6.60;6.10;;;;;;;24.63;57.45;101139.75;6144754;23;20130;-85
2022/08/23 08:24:10;;;;;;;6.70;6.10;;;;;;;24.45;57.24;101086.16;6074821;23;20034;-86
2022/08/23 08:26:36;;;;;;;7.00;6.50;;;;;;;24.24;55.20;101049.00;6087194;23;20018;-87
2022/08/23 08:29:04;;;;;;;7.20;6.70;;;;;;;24.59;57.03;101080.19;6077289;23;20088;-85
2022/08/23 08:31:35;;;;;;;6.72;6.32;;;;;;;24.71;55.92;101087.94;6067427;23;20358;-87
2022/08/23 08:34:01;;;;;;;6.88;6.35;;;;;;;24.59;55.27;101029.19;6069322;23;20045;-86
2022/08/23 08:36:38;;;;;;;6.80;6.20;;;;;;;25.37;54.61;101134.59;6097410;23;20033;-87
2022/08/23 08:39:08;;;;;;;6.93;6.43;;;;;;;25.54;53.88;101132.75;6087593;23;20046;-85
2022/08/23 08:41:48;;;;;;;7.13;6.63;;;;;;;25.46;53.40;101131.78;6090929;23;20018;-86
2022/08/23 08:44:52;;;;;;;6.47;6.07;;;;;;;25.25;53.22;101085.72;6048756;23;20015;-86
2022/08/23 08:48:01;;;;;;;6.68;6.28;;;;;;;25.64;53.47;101146.91;6109562;23;20404;-87
2022/08/23 08:50:36;;;;;;;6.90;6.30;;;;;;;25.66;54.37;101134.13;6050961;23;20503;-86
2022/08/23 08:53:15;;;;;;;7.07;6.57;;;;;;;25.86;52.91;101143.53;6092366;23;20194;-86
2022/08/23 08:55:51;;;;;;;7.43;6.80;;;;;;;25.45;53.36;101046.78;6107322;23;20010;-86
2022/08/23 08:58:27;;;;;;;6.40;6.10;;;;;;;26.04;51.99;101115.59;6080323;23;20384;-86
2022/08/23 09:00:55;;;;;;;7.20;6.60;;;;;;;26.25;51.52;101125.81;6092364;23;20101;-86
2022/08/23 09:03:26;;;;;;;6.80;6.20;;;;;;;25.62;51.15;101027.97;6067162;23;20026;-86
2022/08/23 09:06:14;;;;;;;6.68;6.22;;;;;;;26.02;51.28;101094.28;6120637;23;20097;-85
2022/08/23 09:09:05;;;;;;;7.05;6.38;;;;;;;26.07;51.61;101143.00;6038920;23;20075;-87
2022/08/23 09:11:49;;;;;;;8.35;6.38;;;;;;;26.30;52.53;101144.13;6096108;23;20033;-87
2022/08/23 09:14:28;;;;;;;6.80;6.32;;;;;;;26.66;51.19;101148.09;6060169;23;20066;-85
2022/08/23 09:17:02;;;;;;;7.55;7.05;;;;;;;25.08;50.59;100872.69;6102801;23;20027;-85
2022/08/23 09:19:36;;;;;;;6.88;6.13;;;;;;;26.35;49.34;101142.59;6068101;23;20045;-87
2022/08/23 09:22:12;;;;;;;8.23;7.40;;;;;;;26.50;49.87;101156.22;6083103;23;20026;-87
2022/08/23 09:24:40;;;;;;;6.88;6.28;;;;;;;26.65;50.56;101132.09;6122617;23;20021;-86
2022/08/23 09:27:10;;;;;;;7.32;6.80;;;;;;;26.88;49.65;101124.06;6047620;23;20499;-87
2022/08/23 09:29:50;;;;;;;6.72;6.28;;;;;;;27.19;50.67;101137.53;6118772;23;20076;-86
2022/08/23 09:32:40;;;;;;;6.90;6.30;;;;;;;27.43;48.59;101138.41;6047461;23;20511;-87
2022/08/23 09:35:18;;;;;;;7.18;6.70;;;;;;;26.85;47.87;101082.19;6121838;23;20024;-85
2022/08/23 09:37:57;;;;;;;7.07;6.43;;;;;;;27.38;48.53;101152.44;6055297;23;20027;-86
2022/08/23 09:40:42;;;;;;;7.32;6.68;;;;;;;27.20;47.77;101079.94;6098219;23;20368;-86
2022/08/23 09:43:18;;;;;;;;;;;;;;;27.33;48.06;101141.34;6062510;23;20032;-86
2022/08/23 09:45:50;;;;;;;6.20;5.90;;;;;;;27.48;48.31;101137.84;6093877;23;20145;-85
2022/08/23 09:48:49;;;;;;;;;;;;;;;27.15;48.04;101144.28;6039161;23;20328;-89
2022/08/23 09:51:23;;;;;;;6.63;6.13;;;;;;;26.92;48.98;101146.09;6028451;23;19909;-86
2022/08/23 09:54:03;;;;;;;6.90;6.30;;;;;;;27.25;48.39;101144.94;6092702;23;20038;-86
2022/08/23 09:56:33;;;;;;;7.78;6.30;;;;;;;26.60;47.85;100978.34;6102550;23;20270;-85
2022/08/23 09:59:00;;;;;;;6.38;5.97;;;;;;;27.41;47.10;101046.09;6103946;23;20034;-86
2022/08/23 10:01:31;;;;;;;6.30;5.90;;;;;;;27.91;46.40;101114.75;6063899;23;20029;-87
2022/08/23 10:04:16;;;;;;;7.35;6.53;;;;;;;28.00;46.48;101132.53;6114986;23;20012;-86
2022/08/23 10:06:45;;;;;;;7.13;6.32;;;;;;;28.21;46.47;101136.38;6073843;23;20070;-86
2022/08/23 10:09:26;;;;;;;7.82;7.43;;;;;;;27.81;46.21;101090.72;6082088;23;20021;-86
2022/08/23 10:11:54;;;;;;;9.90;6.20;;;;;;;28.34;45.94;101143.81;6091922;23;20062;-85
2022/08/23 10:14:23;;;;;;;6.53;5.90;;;;;;;28.42;45.54;101132.91;6119563;23;20014;-86
2022/08/23 10:16:56;;;;;;;6.25;5.85;;;;;;;28.59;44.73;101134.44;6089203;23;20026;-85
2022/08/23 10:19:30;;;;;;;6.38;5.90;;;;;;;28.70;45.25;101134.97;6091375;23;20073;-85
2022/08/23 10:22:24;;;;;;;6.50;6.10;;;;;;;28.75;44.78;101130.69;6121096;23;20415;-86
2022/08/23 10:25:06;;;;;;;6.10;5.70;;;;;;;28.63;44.25;101062.81;6094849;23;20020;-87
2022/08/23 10:30:43;;;;;;;6.30;5.90;;;;;;;28.95;42.99;101074.16;6073371;23;20013;-87
2022/08/23 10:33:17;;;;;;;7.22;6.75;;;;;;;28.81;43.17;101121.81;6099570;23;20009;-87
2022/08/23 10:36:11;;;;;;;6.82;6.20;;;;;;;28.94;41.96;101139.19;6062532;23;20343;-87
2022/08/23 10:38:45;;;;;;;7.07;6.30;;;;;;;28.71;42.23;101121.28;6036691;23;20042;-87
2022/08/23 10:41:20;;;;;;;7.35;6.80;;;;;;;28.77;42.20;101138.59;6050797;23;20050;-87
2022/08/23 10:44:21;;;;;;;6.72;6.28;;;;;;;28.45;42.82;101110.97;6038791;23;20487;-87
2022/08/23 10:47:12;;;;;;;7.28;6.63;;;;;;;28.33;42.10;101083.59;6067295;23;20024;-86
2022/08/23 10:49:41;;;;;;;7.15;5.97;;;;;;;29.09;42.98;101115.69;6040206;23;20059;-87
2022/08/23 10:52:12;;;;;;;7.47;6.88;;;;;;;29.55;39.42;101117.19;6065299;23;20030;-86
2022/08/23 10:54:45;;;;;;;6.50;6.10;;;;;;;29.65;40.04;101120.41;6059868;23;20011;-86
2022/08/23 10:57:15;;;;;;;6.97;6.43;;;;;;;29.52;39.52;101099.47;6075669;23;20032;-86
2022/08/23 10:59:45;;;;;;;6.28;5.88;;;;;;;29.71;38.22;101094.41;6043126;23;20097;-88
2022/08/23 11:02:41;;;;;;;8.13;7.40;;;;;;;29.79;39.81;101127.59;6026572;23;20105;-87
2022/08/23 11:05:27;;;;;;;7.38;6.78;;;;;;;29.91;40.69;101124.34;6051555;23;20023;-86
2022/08/23 11:08:11;;;;;;;7.90;6.40;;;;;;;30.20;39.72;101117.88;6043240;23;20480;-87
2022/08/23 11:10:40;;;;;;;7.22;5.75;;;;;;;30.08;39.87;101123.00;6065125;23;20001;-86
2022/08/23 11:13:26;;;;;;;6.53;6.13;;;;;;;29.49;40.82;101099.88;6056942;23;20386;-87
2022/08/23 11:16:00;;;;;;;6.53;5.95;;;;;;;29.29;39.25;101053.75;6016512;23;20109;-86
2022/08/23 11:18:32;;;;;;;6.40;6.00;;;;;;;29.73;40.54;101131.09;6063746;23;20419;-88
2022/08/23 11:21:08;;;;;;;6.55;6.05;;;;;;;30.11;39.63;101135.31;6033117;23;20023;-87
2022/08/23 11:23:37;;;;;;;6.13;5.68;;;;;;;30.25;38.98;101096.47;6084993;23;20018;-87
2022/08/23 11:26:07;;;;;;;6.75;6.35;;;;;;;30.08;38.35;101025.56;6059450;23;20011;-89
2022/08/23 11:28:41;;;;;;;6.43;6.00;;;;;;;30.56;37.54;101065.38;6033383;23;20019;-85
2022/08/23 11:31:07;;;;;;;7.75;7.22;;;;;;;30.51;37.27;101125.59;6086179;23;20045;-86
2022/08/23 11:34:01;;;;;;;7.03;6.43;;;;;;;29.98;36.49;101111.72;6034402;23;20011;-84
2022/08/23 11:36:30;;;;;;;6.10;5.70;;;;;;;30.44;38.64;101124.69;6086316;23;20085;-86
2022/08/23 11:38:56;;;;;;;6.70;6.10;;;;;;;30.55;37.14;101126.00;6074062;23;20085;-86
2022/08/23 11:41:28;;;;;;;6.20;5.80;;;;;;;30.61;36.30;101128.75;6095907;23;20018;-86
2022/08/23 11:43:55;;;;;;;;;;;;;;;30.63;39.33;101128.53;6049116;23;20022;-85
2022/08/23 11:46:21;;;;;;;6.22;5.80;;;;;;;30.91;39.43;101114.91;6090739;23;19906;-87
2022/08/23 11:49:26;;;;;;;6.50;5.90;;;;;;;31.06;37.28;101124.75;6030234;23;20135;-86
2022/08/23 11:52:25;;;;;;;5.90;5.60;;;;;;;30.74;36.21;101070.22;6094853;23;20355;-86
2022/08/23 11:55:05;;;;;;;6.32;5.90;;;;;;;31.09;37.14;101122.47;6053314;23;20036;-87
2022/08/23 11:58:10;;;;;;;6.40;5.85;;;;;;;30.52;37.19;101131.81;6063037;23;20451;-87